sensor_id;sensor_type;location;lat;lon;timestamp;temperature;humidity
24374;DHT22;12498;50.880;12.096;2023-07-31T00:00:06;16.30;1.00
24374;DHT22;12498;50.880;12.096;2023-07-31T00:02:34;16.30;1.00
24374;DHT22;12498;50.880;12.096;2023-07-31T00:05:00;16.30;1.00
24374;DHT22;12498;50.880;12.096;2023-07-31T00:07:26;16.40;99.90
24374;DHT22;12498;50.880;12.096;2023-07-31T00:09:51;16.40;99.90
24374;DHT22;12498;50.880;12.096;2023-07-31T00:12:19;16.40;99.90
24374;DHT22;12498;50.880;12.096;2023-07-31T00:14:44;16.40;99.90
24374;DHT22;12498;50.880;12.096;2023-07-31T00:17:11;16.30;99.90
24374;DHT22;12498;50.880;12.096;2023-07-31T00:19:37;16.30;99.90
24374;DHT22;12498;50.880;12.096;2023-07-31T00:22:02;16.30;99.90
24374;DHT22;12498;50.880;12.096;2023-07-31T00:24:28;16.40;99.90
24374;DHT22;12498;50.880;12.096;2023-07-31T00:26:54;16.40;99.90
24374;DHT22;12498;50.880;12.096;2023-07-31T00:29:19;16.40;99.90
24374;DHT22;12498;50.880;12.096;2023-07-31T00:31:45;16.40;1.00
24374;DHT22;12498;50.880;12.096;2023-07-31T00:34:11;16.50;1.00
24374;DHT22;12498;50.880;12.096;2023-07-31T00:36:38;16.50;1.00
24374;DHT22;12498;50.880;12.096;2023-07-31T00:39:03;16.50;1.00
24374;DHT22;12498;50.880;12.096;2023-07-31T00:41:30;16.60;1.00
24374;DHT22;12498;50.880;12.096;2023-07-31T00:43:55;16.60;99.90
24374;DHT22;12498;50.880;12.096;2023-07-31T00:46:21;16.60;99.90
24374;DHT22;12498;50.880;12.096;2023-07-31T00:48:47;16.60;99.90
24374;DHT22;12498;50.880;12.096;2023-07-31T00:51:13;16.60;1.00
24374;DHT22;12498;50.880;12.096;2023-07-31T00:53:40;16.70;99.90
24374;DHT22;12498;50.880;12.096;2023-07-31T00:56:06;16.70;99.90
24374;DHT22;12498;50.880;12.096;2023-07-31T00:58:32;16.60;99.90
24374;DHT22;12498;50.880;12.096;2023-07-31T01:00:58;16.60;99.90
24374;DHT22;12498;50.880;12.096;2023-07-31T01:03:24;16.70;99.90
24374;DHT22;12498;50.880;12.096;2023-07-31T01:11:27;16.70;99.90
24374;DHT22;12498;50.880;12.096;2023-07-31T01:13:54;16.70;1.00
24374;DHT22;12498;50.880;12.096;2023-07-31T01:16:20;16.70;81.30
24374;DHT22;12498;50.880;12.096;2023-07-31T01:18:46;16.70;99.90
24374;DHT22;12498;50.880;12.096;2023-07-31T01:21:35;16.70;99.90
24374;DHT22;12498;50.880;12.096;2023-07-31T01:24:23;16.70;1.00
24374;DHT22;12498;50.880;12.096;2023-07-31T01:27:06;16.60;5.50
24374;DHT22;12498;50.880;12.096;2023-07-31T01:30:11;16.60;98.80
24374;DHT22;12498;50.880;12.096;2023-07-31T01:32:41;16.50;99.90
24374;DHT22;12498;50.880;12.096;2023-07-31T01:35:07;16.50;99.90
24374;DHT22;12498;50.880;12.096;2023-07-31T01:37:34;16.40;99.90
24374;DHT22;12498;50.880;12.096;2023-07-31T01:39:59;16.40;1.00
24374;DHT22;12498;50.880;12.096;2023-07-31T01:42:25;16.30;99.90
24374;DHT22;12498;50.880;12.096;2023-07-31T01:44:50;16.20;99.90
24374;DHT22;12498;50.880;12.096;2023-07-31T01:47:16;16.20;99.90
24374;DHT22;12498;50.880;12.096;2023-07-31T01:49:42;16.20;1.00
24374;DHT22;12498;50.880;12.096;2023-07-31T01:52:07;16.20;1.00
24374;DHT22;12498;50.880;12.096;2023-07-31T01:54:33;16.10;1.00
24374;DHT22;12498;50.880;12.096;2023-07-31T01:56:59;16.10;1.00
24374;DHT22;12498;50.880;12.096;2023-07-31T01:59:24;16.10;1.00
24374;DHT22;12498;50.880;12.096;2023-07-31T02:01:50;16.00;1.00
24374;DHT22;12498;50.880;12.096;2023-07-31T02:04:15;15.90;1.00
24374;DHT22;12498;50.880;12.096;2023-07-31T02:06:41;15.90;1.00
24374;DHT22;12498;50.880;12.096;2023-07-31T02:09:07;15.80;32.60
24374;DHT22;12498;50.880;12.096;2023-07-31T02:11:32;15.80;57.20
24374;DHT22;12498;50.880;12.096;2023-07-31T02:13:58;15.70;82.20
24374;DHT22;12498;50.880;12.096;2023-07-31T02:16:23;15.70;86.30
24374;DHT22;12498;50.880;12.096;2023-07-31T02:18:49;15.70;99.90
24374;DHT22;12498;50.880;12.096;2023-07-31T02:21:14;15.70;99.90
24374;DHT22;12498;50.880;12.096;2023-07-31T02:23:40;15.70;99.90
24374;DHT22;12498;50.880;12.096;2023-07-31T02:26:06;15.60;99.90
24374;DHT22;12498;50.880;12.096;2023-07-31T02:28:31;15.60;99.90
24374;DHT22;12498;50.880;12.096;2023-07-31T02:30:57;15.60;99.90
24374;DHT22;12498;50.880;12.096;2023-07-31T02:33:22;15.70;99.90
24374;DHT22;12498;50.880;12.096;2023-07-31T02:35:48;15.60;99.90
24374;DHT22;12498;50.880;12.096;2023-07-31T02:38:14;15.60;99.90
24374;DHT22;12498;50.880;12.096;2023-07-31T02:40:40;15.60;99.90
24374;DHT22;12498;50.880;12.096;2023-07-31T02:43:07;15.60;99.90
24374;DHT22;12498;50.880;12.096;2023-07-31T02:45:32;15.60;99.90
24374;DHT22;12498;50.880;12.096;2023-07-31T02:47:58;15.50;99.90
24374;DHT22;12498;50.880;12.096;2023-07-31T02:50:24;15.50;99.90
24374;DHT22;12498;50.880;12.096;2023-07-31T02:52:49;15.40;99.90
24374;DHT22;12498;50.880;12.096;2023-07-31T02:55:15;15.40;99.90
24374;DHT22;12498;50.880;12.096;2023-07-31T02:57:40;15.40;99.90
24374;DHT22;12498;50.880;12.096;2023-07-31T03:00:06;15.30;99.90
24374;DHT22;12498;50.880;12.096;2023-07-31T03:02:33;15.30;99.90
24374;DHT22;12498;50.880;12.096;2023-07-31T03:04:58;15.30;99.90
24374;DHT22;12498;50.880;12.096;2023-07-31T03:07:24;15.20;99.90
24374;DHT22;12498;50.880;12.096;2023-07-31T03:09:50;15.20;99.90
24374;DHT22;12498;50.880;12.096;2023-07-31T03:12:16;15.20;99.90
24374;DHT22;12498;50.880;12.096;2023-07-31T03:14:41;15.20;99.90
24374;DHT22;12498;50.880;12.096;2023-07-31T03:17:07;15.10;99.90
24374;DHT22;12498;50.880;12.096;2023-07-31T03:19:33;15.10;99.90
24374;DHT22;12498;50.880;12.096;2023-07-31T03:21:59;15.10;99.90
24374;DHT22;12498;50.880;12.096;2023-07-31T03:24:25;15.00;99.90
24374;DHT22;12498;50.880;12.096;2023-07-31T03:26:51;15.10;99.90
24374;DHT22;12498;50.880;12.096;2023-07-31T03:29:17;15.00;99.90
24374;DHT22;12498;50.880;12.096;2023-07-31T03:31:42;15.00;99.90
24374;DHT22;12498;50.880;12.096;2023-07-31T03:34:08;16.50;99.90
24374;DHT22;12498;50.880;12.096;2023-07-31T03:36:34;15.00;99.90
24374;DHT22;12498;50.880;12.096;2023-07-31T03:38:59;15.00;99.90
24374;DHT22;12498;50.880;12.096;2023-07-31T03:41:25;15.00;99.90
24374;DHT22;12498;50.880;12.096;2023-07-31T03:43:51;15.00;99.90
24374;DHT22;12498;50.880;12.096;2023-07-31T03:46:26;15.00;99.90
24374;DHT22;12498;50.880;12.096;2023-07-31T03:48:52;15.00;99.90
24374;DHT22;12498;50.880;12.096;2023-07-31T03:51:17;15.00;99.90
24374;DHT22;12498;50.880;12.096;2023-07-31T03:53:43;15.00;99.90
24374;DHT22;12498;50.880;12.096;2023-07-31T03:56:09;15.00;99.90
24374;DHT22;12498;50.880;12.096;2023-07-31T03:58:35;15.00;99.90
24374;DHT22;12498;50.880;12.096;2023-07-31T04:01:02;15.00;99.90
24374;DHT22;12498;50.880;12.096;2023-07-31T04:03:29;15.00;99.90
24374;DHT22;12498;50.880;12.096;2023-07-31T04:05:55;16.10;99.90
24374;DHT22;12498;50.880;12.096;2023-07-31T04:08:22;15.50;99.90
24374;DHT22;12498;50.880;12.096;2023-07-31T04:10:47;15.00;99.90
24374;DHT22;12498;50.880;12.096;2023-07-31T04:13:13;15.00;99.90
24374;DHT22;12498;50.880;12.096;2023-07-31T04:15:39;15.00;99.90
24374;DHT22;12498;50.880;12.096;2023-07-31T04:18:05;15.00;99.90
24374;DHT22;12498;50.880;12.096;2023-07-31T04:20:30;15.10;99.90
24374;DHT22;12498;50.880;12.096;2023-07-31T04:22:56;15.10;99.90
24374;DHT22;12498;50.880;12.096;2023-07-31T04:25:22;15.10;99.90
24374;DHT22;12498;50.880;12.096;2023-07-31T04:27:48;15.20;99.90
24374;DHT22;12498;50.880;12.096;2023-07-31T04:30:13;15.20;99.90
24374;DHT22;12498;50.880;12.096;2023-07-31T04:32:39;15.30;99.90
24374;DHT22;12498;50.880;12.096;2023-07-31T04:35:05;15.30;99.90
24374;DHT22;12498;50.880;12.096;2023-07-31T04:37:31;15.40;99.90
24374;DHT22;12498;50.880;12.096;2023-07-31T04:39:57;15.40;99.90
24374;DHT22;12498;50.880;12.096;2023-07-31T04:42:22;15.40;99.90
24374;DHT22;12498;50.880;12.096;2023-07-31T04:44:48;15.30;99.90
24374;DHT22;12498;50.880;12.096;2023-07-31T04:47:14;15.30;99.90
24374;DHT22;12498;50.880;12.096;2023-07-31T04:49:39;15.30;99.90
24374;DHT22;12498;50.880;12.096;2023-07-31T04:52:05;15.30;99.90
24374;DHT22;12498;50.880;12.096;2023-07-31T04:54:31;15.40;99.90
24374;DHT22;12498;50.880;12.096;2023-07-31T04:56:56;15.40;99.90
24374;DHT22;12498;50.880;12.096;2023-07-31T04:59:22;15.40;99.90
24374;DHT22;12498;50.880;12.096;2023-07-31T05:01:48;15.40;99.90
24374;DHT22;12498;50.880;12.096;2023-07-31T05:04:14;15.40;99.90
24374;DHT22;12498;50.880;12.096;2023-07-31T05:06:40;15.50;99.90
24374;DHT22;12498;50.880;12.096;2023-07-31T05:09:06;15.50;99.90
24374;DHT22;12498;50.880;12.096;2023-07-31T05:11:32;15.50;99.90
24374;DHT22;12498;50.880;12.096;2023-07-31T05:13:57;15.50;99.90
24374;DHT22;12498;50.880;12.096;2023-07-31T05:16:23;15.60;99.90
24374;DHT22;12498;50.880;12.096;2023-07-31T05:18:49;15.60;99.90
24374;DHT22;12498;50.880;12.096;2023-07-31T05:21:14;15.60;99.90
24374;DHT22;12498;50.880;12.096;2023-07-31T05:23:40;15.60;99.90
24374;DHT22;12498;50.880;12.096;2023-07-31T05:26:06;15.60;99.90
24374;DHT22;12498;50.880;12.096;2023-07-31T05:28:34;15.60;99.90
24374;DHT22;12498;50.880;12.096;2023-07-31T05:31:04;15.70;99.90
24374;DHT22;12498;50.880;12.096;2023-07-31T05:33:29;15.70;99.90
24374;DHT22;12498;50.880;12.096;2023-07-31T05:35:55;15.80;99.90
24374;DHT22;12498;50.880;12.096;2023-07-31T05:38:21;15.80;99.90
24374;DHT22;12498;50.880;12.096;2023-07-31T05:40:47;15.90;99.90
24374;DHT22;12498;50.880;12.096;2023-07-31T05:43:13;16.00;99.90
24374;DHT22;12498;50.880;12.096;2023-07-31T05:45:38;16.00;99.90
24374;DHT22;12498;50.880;12.096;2023-07-31T05:48:05;16.00;99.90
24374;DHT22;12498;50.880;12.096;2023-07-31T05:50:31;16.00;99.90
24374;DHT22;12498;50.880;12.096;2023-07-31T05:52:57;16.10;99.90
24374;DHT22;12498;50.880;12.096;2023-07-31T05:55:23;16.10;99.90
24374;DHT22;12498;50.880;12.096;2023-07-31T05:57:49;16.20;99.90
24374;DHT22;12498;50.880;12.096;2023-07-31T06:00:15;16.30;99.90
24374;DHT22;12498;50.880;12.096;2023-07-31T06:02:40;16.30;99.90
24374;DHT22;12498;50.880;12.096;2023-07-31T06:05:06;16.30;99.90
24374;DHT22;12498;50.880;12.096;2023-07-31T06:07:32;16.40;99.90
24374;DHT22;12498;50.880;12.096;2023-07-31T06:09:57;16.60;99.90
24374;DHT22;12498;50.880;12.096;2023-07-31T06:12:28;16.60;99.90
24374;DHT22;12498;50.880;12.096;2023-07-31T06:14:54;16.70;99.90
24374;DHT22;12498;50.880;12.096;2023-07-31T06:17:20;16.70;99.90
24374;DHT22;12498;50.880;12.096;2023-07-31T06:19:46;16.80;99.90
24374;DHT22;12498;50.880;12.096;2023-07-31T06:22:12;16.90;99.90
24374;DHT22;12498;50.880;12.096;2023-07-31T06:27:04;17.00;99.90
24374;DHT22;12498;50.880;12.096;2023-07-31T06:29:31;17.00;99.90
24374;DHT22;12498;50.880;12.096;2023-07-31T06:31:57;17.10;99.90
24374;DHT22;12498;50.880;12.096;2023-07-31T06:34:22;17.10;76.10
24374;DHT22;12498;50.880;12.096;2023-07-31T06:36:48;17.20;66.40
24374;DHT22;12498;50.880;12.096;2023-07-31T06:39:13;17.20;60.10
24374;DHT22;12498;50.880;12.096;2023-07-31T06:41:39;17.40;32.40
24374;DHT22;12498;50.880;12.096;2023-07-31T06:44:04;17.50;13.80
24374;DHT22;12498;50.880;12.096;2023-07-31T06:46:30;17.50;1.00
24374;DHT22;12498;50.880;12.096;2023-07-31T06:48:56;17.50;1.00
24374;DHT22;12498;50.880;12.096;2023-07-31T06:53:47;17.60;1.00
24374;DHT22;12498;50.880;12.096;2023-07-31T06:56:13;17.80;1.00
24374;DHT22;12498;50.880;12.096;2023-07-31T06:58:39;17.90;1.00
24374;DHT22;12498;50.880;12.096;2023-07-31T07:01:05;18.00;1.00
24374;DHT22;12498;50.880;12.096;2023-07-31T07:03:30;18.00;1.00
24374;DHT22;12498;50.880;12.096;2023-07-31T07:05:56;18.00;99.90
24374;DHT22;12498;50.880;12.096;2023-07-31T07:08:28;18.00;99.90
24374;DHT22;12498;50.880;12.096;2023-07-31T07:10:53;18.10;99.90
24374;DHT22;12498;50.880;12.096;2023-07-31T07:13:19;18.10;99.90
24374;DHT22;12498;50.880;12.096;2023-07-31T07:15:48;18.10;99.90
24374;DHT22;12498;50.880;12.096;2023-07-31T07:18:14;18.00;99.90
24374;DHT22;12498;50.880;12.096;2023-07-31T07:20:40;17.90;99.90
24374;DHT22;12498;50.880;12.096;2023-07-31T07:23:06;17.90;99.90
24374;DHT22;12498;50.880;12.096;2023-07-31T07:27:57;17.80;1.00
24374;DHT22;12498;50.880;12.096;2023-07-31T07:30:23;17.70;1.00
24374;DHT22;12498;50.880;12.096;2023-07-31T07:35:16;17.70;1.00
24374;DHT22;12498;50.880;12.096;2023-07-31T07:37:42;17.70;1.00
24374;DHT22;12498;50.880;12.096;2023-07-31T07:40:08;17.70;99.90
24374;DHT22;12498;50.880;12.096;2023-07-31T07:42:34;17.70;99.90
24374;DHT22;12498;50.880;12.096;2023-07-31T07:44:59;17.70;1.00
24374;DHT22;12498;50.880;12.096;2023-07-31T07:47:25;17.70;1.00
24374;DHT22;12498;50.880;12.096;2023-07-31T07:49:50;17.70;99.90
24374;DHT22;12498;50.880;12.096;2023-07-31T07:52:16;17.70;99.90
24374;DHT22;12498;50.880;12.096;2023-07-31T07:54:42;17.80;99.90
24374;DHT22;12498;50.880;12.096;2023-07-31T07:57:07;17.80;99.90
24374;DHT22;12498;50.880;12.096;2023-07-31T07:59:33;17.90;99.90
24374;DHT22;12498;50.880;12.096;2023-07-31T08:01:58;17.80;99.90
24374;DHT22;12498;50.880;12.096;2023-07-31T08:04:24;17.90;99.90
24374;DHT22;12498;50.880;12.096;2023-07-31T08:06:49;18.00;99.90
24374;DHT22;12498;50.880;12.096;2023-07-31T08:09:15;18.00;99.90
24374;DHT22;12498;50.880;12.096;2023-07-31T08:11:41;18.10;99.90
24374;DHT22;12498;50.880;12.096;2023-07-31T08:14:06;18.10;99.90
24374;DHT22;12498;50.880;12.096;2023-07-31T08:16:32;18.10;99.90
24374;DHT22;12498;50.880;12.096;2023-07-31T08:18:58;18.20;14.00
24374;DHT22;12498;50.880;12.096;2023-07-31T08:21:23;18.30;1.00
24374;DHT22;12498;50.880;12.096;2023-07-31T08:23:49;18.40;1.00
24374;DHT22;12498;50.880;12.096;2023-07-31T08:26:18;18.40;1.00
24374;DHT22;12498;50.880;12.096;2023-07-31T08:28:44;18.40;1.00
24374;DHT22;12498;50.880;12.096;2023-07-31T08:31:10;18.60;99.90
24374;DHT22;12498;50.880;12.096;2023-07-31T08:33:37;18.70;99.90
24374;DHT22;12498;50.880;12.096;2023-07-31T08:36:03;18.80;99.90
24374;DHT22;12498;50.880;12.096;2023-07-31T08:38:29;18.90;58.80
24374;DHT22;12498;50.880;12.096;2023-07-31T08:40:57;19.00;1.00
24374;DHT22;12498;50.880;12.096;2023-07-31T08:43:27;19.10;99.90
24374;DHT22;12498;50.880;12.096;2023-07-31T08:45:53;19.20;99.90
24374;DHT22;12498;50.880;12.096;2023-07-31T08:48:21;19.20;49.10
24374;DHT22;12498;50.880;12.096;2023-07-31T08:50:47;19.20;1.00
24374;DHT22;12498;50.880;12.096;2023-07-31T08:53:13;19.20;1.00
24374;DHT22;12498;50.880;12.096;2023-07-31T08:55:39;19.20;99.90
24374;DHT22;12498;50.880;12.096;2023-07-31T08:58:05;19.30;99.90
24374;DHT22;12498;50.880;12.096;2023-07-31T09:00:32;19.40;1.00
24374;DHT22;12498;50.880;12.096;2023-07-31T09:05:28;19.50;99.90
24374;DHT22;12498;50.880;12.096;2023-07-31T09:07:55;19.60;1.00
24374;DHT22;12498;50.880;12.096;2023-07-31T09:10:21;19.70;1.00
24374;DHT22;12498;50.880;12.096;2023-07-31T09:12:49;19.70;99.90
24374;DHT22;12498;50.880;12.096;2023-07-31T09:15:14;19.70;1.00
24374;DHT22;12498;50.880;12.096;2023-07-31T09:17:40;19.80;1.00
24374;DHT22;12498;50.880;12.096;2023-07-31T09:20:17;19.90;64.20
24374;DHT22;12498;50.880;12.096;2023-07-31T09:22:44;19.80;13.00
24374;DHT22;12498;50.880;12.096;2023-07-31T09:25:24;19.80;76.00
24374;DHT22;12498;50.880;12.096;2023-07-31T09:27:54;19.70;1.00
24374;DHT22;12498;50.880;12.096;2023-07-31T09:30:20;19.60;99.90
24374;DHT22;12498;50.880;12.096;2023-07-31T09:32:47;19.60;99.90
24374;DHT22;12498;50.880;12.096;2023-07-31T09:35:27;19.50;99.90
24374;DHT22;12498;50.880;12.096;2023-07-31T09:37:54;19.30;99.90
24374;DHT22;12498;50.880;12.096;2023-07-31T09:40:28;19.20;1.00
24374;DHT22;12498;50.880;12.096;2023-07-31T09:45:23;19.00;1.00
24374;DHT22;12498;50.880;12.096;2023-07-31T09:47:48;19.10;99.90
24374;DHT22;12498;50.880;12.096;2023-07-31T09:50:14;19.10;48.80
24374;DHT22;12498;50.880;12.096;2023-07-31T09:55:09;19.20;99.90
24374;DHT22;12498;50.880;12.096;2023-07-31T09:57:44;19.30;99.90
24374;DHT22;12498;50.880;12.096;2023-07-31T10:00:11;19.40;15.80
24374;DHT22;12498;50.880;12.096;2023-07-31T10:02:38;19.50;1.00
24374;DHT22;12498;50.880;12.096;2023-07-31T10:05:05;19.80;99.90
24374;DHT22;12498;50.880;12.096;2023-07-31T10:07:36;20.30;1.00
24374;DHT22;12498;50.880;12.096;2023-07-31T10:10:04;20.60;99.90
24374;DHT22;12498;50.880;12.096;2023-07-31T10:12:32;20.70;99.90
24374;DHT22;12498;50.880;12.096;2023-07-31T10:14:59;21.20;99.90
24374;DHT22;12498;50.880;12.096;2023-07-31T10:17:26;21.40;18.70
24374;DHT22;12498;50.880;12.096;2023-07-31T10:19:53;21.40;73.00
24374;DHT22;12498;50.880;12.096;2023-07-31T10:22:19;21.70;99.90
24374;DHT22;12498;50.880;12.096;2023-07-31T10:24:46;21.70;1.00
24374;DHT22;12498;50.880;12.096;2023-07-31T10:27:14;21.80;1.00
24374;DHT22;12498;50.880;12.096;2023-07-31T10:29:41;21.70;99.90
24374;DHT22;12498;50.880;12.096;2023-07-31T10:32:09;21.70;99.90
24374;DHT22;12498;50.880;12.096;2023-07-31T10:34:36;21.40;99.90
24374;DHT22;12498;50.880;12.096;2023-07-31T10:37:27;21.40;99.90
24374;DHT22;12498;50.880;12.096;2023-07-31T10:42:51;21.40;99.90
24374;DHT22;12498;50.880;12.096;2023-07-31T10:48:01;21.20;99.90
24374;DHT22;12498;50.880;12.096;2023-07-31T10:50:28;21.20;99.90
24374;DHT22;12498;50.880;12.096;2023-07-31T10:52:55;21.20;99.90
24374;DHT22;12498;50.880;12.096;2023-07-31T10:58:07;21.50;99.90
24374;DHT22;12498;50.880;12.096;2023-07-31T11:00:33;21.60;99.90
24374;DHT22;12498;50.880;12.096;2023-07-31T11:08:16;21.40;1.00
24374;DHT22;12498;50.880;12.096;2023-07-31T11:10:43;21.40;49.50
24374;DHT22;12498;50.880;12.096;2023-07-31T11:13:10;21.70;1.00
24374;DHT22;12498;50.880;12.096;2023-07-31T11:15:36;21.70;1.00
24374;DHT22;12498;50.880;12.096;2023-07-31T11:18:02;21.80;1.00
24374;DHT22;12498;50.880;12.096;2023-07-31T11:20:31;21.90;1.00
24374;DHT22;12498;50.880;12.096;2023-07-31T11:23:06;22.30;99.90
24374;DHT22;12498;50.880;12.096;2023-07-31T11:25:33;22.20;99.90
24374;DHT22;12498;50.880;12.096;2023-07-31T11:28:06;22.20;99.90
24374;DHT22;12498;50.880;12.096;2023-07-31T11:30:32;22.10;99.90
24374;DHT22;12498;50.880;12.096;2023-07-31T11:32:57;22.20;99.90
24374;DHT22;12498;50.880;12.096;2023-07-31T11:35:23;22.10;99.90
24374;DHT22;12498;50.880;12.096;2023-07-31T11:37:49;22.20;99.90
24374;DHT22;12498;50.880;12.096;2023-07-31T11:40:15;22.10;99.90
24374;DHT22;12498;50.880;12.096;2023-07-31T11:42:41;22.00;99.90
24374;DHT22;12498;50.880;12.096;2023-07-31T11:45:10;21.80;99.90
24374;DHT22;12498;50.880;12.096;2023-07-31T11:47:37;21.60;99.90
24374;DHT22;12498;50.880;12.096;2023-07-31T11:50:10;21.50;99.90
24374;DHT22;12498;50.880;12.096;2023-07-31T11:52:42;21.30;99.90
24374;DHT22;12498;50.880;12.096;2023-07-31T11:55:09;21.30;99.90
24374;DHT22;12498;50.880;12.096;2023-07-31T11:57:39;21.40;99.90
24374;DHT22;12498;50.880;12.096;2023-07-31T12:00:07;21.40;99.90
24374;DHT22;12498;50.880;12.096;2023-07-31T12:02:34;21.50;99.90
24374;DHT22;12498;50.880;12.096;2023-07-31T12:05:01;21.60;99.90
24374;DHT22;12498;50.880;12.096;2023-07-31T12:07:27;22.00;99.90
24374;DHT22;12498;50.880;12.096;2023-07-31T12:09:56;22.00;99.90
24374;DHT22;12498;50.880;12.096;2023-07-31T12:12:25;21.80;99.90
24374;DHT22;12498;50.880;12.096;2023-07-31T12:17:19;21.70;99.90
24374;DHT22;12498;50.880;12.096;2023-07-31T12:19:46;21.70;99.90
24374;DHT22;12498;50.880;12.096;2023-07-31T12:22:14;22.00;99.90
24374;DHT22;12498;50.880;12.096;2023-07-31T12:24:42;22.30;99.90
24374;DHT22;12498;50.880;12.096;2023-07-31T12:27:14;22.90;99.90
24374;DHT22;12498;50.880;12.096;2023-07-31T12:29:42;23.60;1.00
24374;DHT22;12498;50.880;12.096;2023-07-31T12:32:25;23.20;1.00
24374;DHT22;12498;50.880;12.096;2023-07-31T12:34:53;23.00;96.00
24374;DHT22;12498;50.880;12.096;2023-07-31T12:37:20;23.30;1.00
24374;DHT22;12498;50.880;12.096;2023-07-31T12:39:46;23.50;1.00
24374;DHT22;12498;50.880;12.096;2023-07-31T12:42:12;23.50;9.90
24374;DHT22;12498;50.880;12.096;2023-07-31T12:44:37;23.50;1.00
24374;DHT22;12498;50.880;12.096;2023-07-31T12:47:03;23.60;1.00
24374;DHT22;12498;50.880;12.096;2023-07-31T12:49:29;23.70;1.00
24374;DHT22;12498;50.880;12.096;2023-07-31T12:51:55;23.00;96.50
24374;DHT22;12498;50.880;12.096;2023-07-31T12:54:20;22.90;99.90
24374;DHT22;12498;50.880;12.096;2023-07-31T12:56:46;22.90;99.90
24374;DHT22;12498;50.880;12.096;2023-07-31T13:01:38;23.00;99.90
24374;DHT22;12498;50.880;12.096;2023-07-31T13:04:03;23.20;99.90
24374;DHT22;12498;50.880;12.096;2023-07-31T13:06:29;23.20;25.10
24374;DHT22;12498;50.880;12.096;2023-07-31T13:08:55;22.80;99.90
24374;DHT22;12498;50.880;12.096;2023-07-31T13:11:20;22.40;92.30
24374;DHT22;12498;50.880;12.096;2023-07-31T13:13:46;22.20;99.90
24374;DHT22;12498;50.880;12.096;2023-07-31T13:16:11;22.00;99.90
24374;DHT22;12498;50.880;12.096;2023-07-31T13:18:37;22.00;99.90
24374;DHT22;12498;50.880;12.096;2023-07-31T13:23:29;22.50;99.90
24374;DHT22;12498;50.880;12.096;2023-07-31T13:25:54;23.00;1.00
24374;DHT22;12498;50.880;12.096;2023-07-31T13:28:20;23.00;1.00
24374;DHT22;12498;50.880;12.096;2023-07-31T13:30:45;23.70;1.00
24374;DHT22;12498;50.880;12.096;2023-07-31T13:33:11;25.60;99.90
24374;DHT22;12498;50.880;12.096;2023-07-31T13:35:37;25.80;99.90
24374;DHT22;12498;50.880;12.096;2023-07-31T13:38:02;25.70;99.90
24374;DHT22;12498;50.880;12.096;2023-07-31T13:40:28;25.50;99.90
24374;DHT22;12498;50.880;12.096;2023-07-31T13:42:53;25.10;99.90
24374;DHT22;12498;50.880;12.096;2023-07-31T13:45:20;23.20;99.90
24374;DHT22;12498;50.880;12.096;2023-07-31T13:47:45;23.10;99.90
24374;DHT22;12498;50.880;12.096;2023-07-31T13:50:11;23.70;99.90
24374;DHT22;12498;50.880;12.096;2023-07-31T13:52:36;24.40;99.90
24374;DHT22;12498;50.880;12.096;2023-07-31T13:55:02;25.30;99.90
24374;DHT22;12498;50.880;12.096;2023-07-31T13:57:28;26.00;99.90
24374;DHT22;12498;50.880;12.096;2023-07-31T13:59:53;25.60;99.90
24374;DHT22;12498;50.880;12.096;2023-07-31T14:02:19;25.70;99.90
24374;DHT22;12498;50.880;12.096;2023-07-31T14:04:44;25.20;99.90
24374;DHT22;12498;50.880;12.096;2023-07-31T14:07:10;25.00;99.90
24374;DHT22;12498;50.880;12.096;2023-07-31T14:09:36;24.30;99.90
24374;DHT22;12498;50.880;12.096;2023-07-31T14:12:02;24.00;99.90
24374;DHT22;12498;50.880;12.096;2023-07-31T14:14:27;23.40;99.90
24374;DHT22;12498;50.880;12.096;2023-07-31T14:16:53;22.90;99.90
24374;DHT22;12498;50.880;12.096;2023-07-31T14:24:11;22.10;1.00
24374;DHT22;12498;50.880;12.096;2023-07-31T14:26:37;21.90;99.90
24374;DHT22;12498;50.880;12.096;2023-07-31T14:29:03;22.20;74.60
24374;DHT22;12498;50.880;12.096;2023-07-31T14:33:54;22.20;6.50
24374;DHT22;12498;50.880;12.096;2023-07-31T14:36:20;22.20;16.90
24374;DHT22;12498;50.880;12.096;2023-07-31T14:38:45;21.80;99.90
24374;DHT22;12498;50.880;12.096;2023-07-31T14:41:11;21.70;99.90
24374;DHT22;12498;50.880;12.096;2023-07-31T14:43:37;21.70;99.90
24374;DHT22;12498;50.880;12.096;2023-07-31T14:46:02;22.00;99.90
24374;DHT22;12498;50.880;12.096;2023-07-31T14:48:28;22.20;57.20
24374;DHT22;12498;50.880;12.096;2023-07-31T14:50:54;22.20;71.20
24374;DHT22;12498;50.880;12.096;2023-07-31T14:53:20;22.30;64.30
24374;DHT22;12498;50.880;12.096;2023-07-31T14:55:46;22.10;1.00
24374;DHT22;12498;50.880;12.096;2023-07-31T14:58:11;22.30;99.90
24374;DHT22;12498;50.880;12.096;2023-07-31T15:00:39;22.80;99.90
24374;DHT22;12498;50.880;12.096;2023-07-31T15:15:15;24.30;99.90
24374;DHT22;12498;50.880;12.096;2023-07-31T15:17:41;24.20;99.90
24374;DHT22;12498;50.880;12.096;2023-07-31T16:20:59;21.70;77.20
24374;DHT22;12498;50.880;12.096;2023-07-31T16:23:24;21.60;99.90
24374;DHT22;12498;50.880;12.096;2023-07-31T16:25:50;21.60;99.90
24374;DHT22;12498;50.880;12.096;2023-07-31T16:30:42;21.50;99.90
24374;DHT22;12498;50.880;12.096;2023-07-31T16:33:09;21.50;99.90
24374;DHT22;12498;50.880;12.096;2023-07-31T16:35:34;21.40;99.90
24374;DHT22;12498;50.880;12.096;2023-07-31T16:38:00;21.40;99.90
24374;DHT22;12498;50.880;12.096;2023-07-31T16:40:25;21.70;99.90
24374;DHT22;12498;50.880;12.096;2023-07-31T16:47:43;21.40;99.90
24374;DHT22;12498;50.880;12.096;2023-07-31T16:50:09;21.40;99.90
24374;DHT22;12498;50.880;12.096;2023-07-31T16:52:34;21.40;99.90
24374;DHT22;12498;50.880;12.096;2023-07-31T16:55:00;21.20;99.90
24374;DHT22;12498;50.880;12.096;2023-07-31T16:57:26;21.30;99.90
